Time;durP1;ratioP1;P1;durP2;ratioP2;P2;SDS_P1;SDS_P2;PMS_P1;PMS_P2;Temp;Humidity;BMP_temperature;BMP_pressure;BME280_temperature;BME280_humidity;BME280_pressure;Samples;Min_cycle;Max_cycle;Signal;HPM_P1;HPM_P2
2022/08/24 00:01:16;;;;;;;3.67;2.10;;;26.90;1.00;;;;;;5032186;28;20033;-56
2022/08/24 00:03:43;;;;;;;3.63;1.95;;;26.90;1.00;;;;;;5030154;28;20037;-56
2022/08/24 00:06:12;;;;;;;3.88;2.00;;;26.80;1.00;;;;;;5031991;28;20029;-56
2022/08/24 00:08:40;;;;;;;2.42;1.80;;;26.70;1.00;;;;;;5034929;28;20030;-56
2022/08/24 00:11:06;;;;;;;2.17;1.65;;;26.70;1.00;;;;;;5018085;28;20018;-56
2022/08/24 00:13:32;;;;;;;2.58;1.65;;;26.80;1.00;;;;;;5039352;28;20041;-53
2022/08/24 00:15:58;;;;;;;3.08;1.75;;;26.80;1.00;;;;;;5031995;28;20036;-55
2022/08/24 00:18:24;;;;;;;2.55;2.10;;;26.80;1.00;;;;;;5031449;28;20025;-57
2022/08/24 00:20:50;;;;;;;1.70;1.60;;;26.80;1.00;;;;;;5031905;28;20041;-55
2022/08/24 00:23:16;;;;;;;5.70;1.73;;;26.80;1.00;;;;;;5030444;28;20087;-56
2022/08/24 00:25:41;;;;;;;2.72;1.60;;;26.70;1.00;;;;;;5032191;28;20029;-57
2022/08/24 00:28:08;;;;;;;3.80;1.60;;;26.60;1.00;;;;;;5039460;28;20029;-55
2022/08/24 00:30:34;;;;;;;2.28;1.45;;;26.70;1.00;;;;;;5031870;28;20022;-55
2022/08/24 00:33:00;;;;;;;1.67;1.58;;;26.60;1.00;;;;;;5038314;28;20025;-57
2022/08/24 00:35:31;;;;;;;5.18;1.75;;;26.60;1.00;;;;;;5033230;28;20033;-55
2022/08/24 00:37:57;;;;;;;4.25;1.65;;;26.50;1.00;;;;;;5034176;28;20424;-55
2022/08/24 00:40:35;;;;;;;2.83;1.92;;;26.50;1.00;;;;;;5034128;28;20036;-55
2022/08/24 00:43:03;;;;;;;4.13;1.38;;;26.50;1.00;;;;;;5031046;28;20026;-52
2022/08/24 00:45:32;;;;;;;1.73;1.55;;;26.50;1.00;;;;;;5031510;28;20028;-56
2022/08/24 00:48:04;;;;;;;3.83;1.30;;;26.50;1.00;;;;;;5035896;28;20038;-54
2022/08/24 00:50:44;;;;;;;2.42;1.33;;;26.50;1.00;;;;;;5034272;28;20030;-56
2022/08/24 00:53:23;;;;;;;2.40;1.27;;;26.50;1.00;;;;;;5021592;28;20018;-55
2022/08/24 00:55:53;;;;;;;2.28;1.27;;;26.30;1.00;;;;;;5031480;28;20029;-54
2022/08/24 00:58:30;;;;;;;2.70;1.65;;;26.40;1.00;;;;;;5036236;28;20021;-55
2022/08/24 01:01:05;;;;;;;1.38;1.20;;;26.40;1.00;;;;;;5038275;28;20052;-56
2022/08/24 01:03:31;;;;;;;3.38;1.23;;;26.40;1.00;;;;;;5040110;28;20029;-55
2022/08/24 01:05:57;;;;;;;2.50;1.25;;;26.40;1.00;;;;;;5033394;28;20033;-57
2022/08/24 01:08:24;;;;;;;2.78;1.27;;;26.40;1.00;;;;;;5030784;28;20040;-56
2022/08/24 01:10:53;;;;;;;4.65;1.52;;;26.30;1.00;;;;;;5026015;28;20356;-57
2022/08/24 01:13:20;;;;;;;2.80;1.55;;;26.40;1.00;;;;;;5031656;28;20108;-57
2022/08/24 01:15:49;;;;;;;1.88;1.58;;;26.40;1.00;;;;;;5036249;28;20033;-57
2022/08/24 01:21:09;;;;;;;1.40;1.10;;;26.10;1.00;;;;;;5038001;28;20129;-57
2022/08/24 01:23:47;;;;;;;3.00;1.45;;;26.20;1.00;;;;;;5031508;28;20144;-56
2022/08/24 01:26:24;;;;;;;2.40;1.23;;;26.20;1.00;;;;;;5033848;28;20057;-56
2022/08/24 01:28:54;;;;;;;1.95;1.20;;;26.20;1.00;;;;;;5030220;28;20075;-55
2022/08/24 01:31:22;;;;;;;3.72;1.20;;;26.20;1.00;;;;;;5038489;28;20454;-56
2022/08/24 01:33:51;;;;;;;2.70;1.02;;;26.20;1.00;;;;;;5033823;28;20021;-56
2022/08/24 01:36:24;;;;;;;1.92;1.02;;;26.20;1.00;;;;;;5033186;28;20029;-57
2022/08/24 01:38:53;;;;;;;2.53;1.10;;;26.20;1.00;;;;;;5034600;28;20057;-56
2022/08/24 01:41:19;;;;;;;2.30;1.20;;;26.20;1.00;;;;;;5039431;28;20109;-55
2022/08/24 01:43:45;;;;;;;1.77;1.10;;;26.20;1.00;;;;;;5034033;28;20068;-56
2022/08/24 01:46:10;;;;;;;1.98;1.27;;;26.20;1.00;;;;;;5022829;28;20095;-57
2022/08/24 01:48:36;;;;;;;1.30;1.20;;;26.20;1.00;;;;;;5034522;28;20025;-54
2022/08/24 01:51:02;;;;;;;2.53;1.33;;;26.20;1.00;;;;;;5039135;28;20242;-55
2022/08/24 01:53:28;;;;;;;2.58;1.25;;;26.10;1.00;;;;;;5036080;28;20005;-56
2022/08/24 01:55:54;;;;;;;1.77;1.17;;;26.10;1.00;;;;;;5037853;28;20513;-56
2022/08/24 01:58:20;;;;;;;2.33;1.02;;;26.00;1.00;;;;;;5037100;28;20387;-54
2022/08/24 02:00:46;;;;;;;2.28;1.00;;;26.10;1.00;;;;;;5039176;28;20040;-54
2022/08/24 02:03:11;;;;;;;2.42;1.48;;;26.10;1.00;;;;;;5035899;28;20109;-55
2022/08/24 02:05:37;;;;;;;1.38;1.27;;;26.10;1.00;;;;;;5021012;28;20029;-57
2022/08/24 02:08:03;;;;;;;4.13;1.10;;;26.10;1.00;;;;;;5034450;28;20040;-54
2022/08/24 02:10:30;;;;;;;2.00;0.85;;;26.00;1.00;;;;;;5029203;28;20044;-56
2022/08/24 02:12:57;;;;;;;1.40;1.30;;;26.10;1.00;;;;;;5034411;28;20033;-55
2022/08/24 02:15:32;;;;;;;2.00;1.20;;;26.00;1.00;;;;;;5032576;28;20391;-57
2022/08/24 02:17:58;;;;;;;4.35;1.33;;;26.00;1.00;;;;;;5032394;28;20471;-56
2022/08/24 02:20:24;;;;;;;2.13;1.63;;;26.00;1.00;;;;;;5032032;28;20121;-54
2022/08/24 02:22:52;;;;;;;1.25;1.02;;;26.00;1.00;;;;;;5046561;28;20022;-55
2022/08/24 02:25:18;;;;;;;4.85;1.15;;;26.00;1.00;;;;;;5030892;28;20018;-55
2022/08/24 02:27:44;;;;;;;1.80;1.23;;;26.00;1.00;;;;;;5035577;28;20057;-57
2022/08/24 02:30:10;;;;;;;3.00;1.08;;;26.00;1.00;;;;;;5033787;28;20026;-55
2022/08/24 02:32:35;;;;;;;1.42;1.27;;;26.00;1.00;;;;;;5033397;28;20025;-55
2022/08/24 02:35:01;;;;;;;1.42;1.30;;;26.00;1.00;;;;;;5025372;28;20037;-56
2022/08/24 02:37:27;;;;;;;2.88;1.45;;;25.90;1.00;;;;;;5042091;28;20017;-56
2022/08/24 02:39:52;;;;;;;1.15;1.05;;;26.00;1.00;;;;;;5033796;28;20475;-54
2022/08/24 02:42:18;;;;;;;2.90;1.33;;;25.90;1.00;;;;;;5032969;28;20549;-55
2022/08/24 02:44:44;;;;;;;2.38;1.45;;;25.80;1.00;;;;;;5032338;28;20542;-55
2022/08/24 02:47:10;;;;;;;1.95;1.70;;;25.80;1.00;;;;;;5043946;28;20550;-56
2022/08/24 02:49:35;;;;;;;2.08;1.38;;;25.80;1.00;;;;;;5032801;28;20067;-52
2022/08/24 02:52:02;;;;;;;2.83;1.30;;;25.80;1.00;;;;;;5043316;28;20017;-53
2022/08/24 02:54:27;;;;;;;3.28;1.70;;;25.80;1.00;;;;;;5035041;28;20025;-57
2022/08/24 02:56:53;;;;;;;1.92;1.40;;;25.80;1.00;;;;;;5042051;28;20029;-56
2022/08/24 02:59:23;;;;;;;2.28;1.60;;;25.80;1.00;;;;;;5037462;28;20033;-52
2022/08/24 03:01:49;;;;;;;2.40;1.45;;;25.80;1.00;;;;;;5032698;28;20128;-56
2022/08/24 03:04:15;;;;;;;2.35;1.52;;;25.80;1.00;;;;;;5033257;28;20021;-56
2022/08/24 03:06:41;;;;;;;2.47;1.63;;;25.70;1.00;;;;;;5031640;28;20037;-55
2022/08/24 03:09:07;;;;;;;4.05;1.40;;;25.70;1.00;;;;;;5023702;28;20072;-55
2022/08/24 03:11:33;;;;;;;1.40;1.30;;;25.70;1.00;;;;;;5030884;28;20021;-55
2022/08/24 03:13:59;;;;;;;1.60;1.50;;;25.70;1.00;;;;;;5033353;28;20037;-54
2022/08/24 03:16:26;;;;;;;4.10;1.75;;;25.70;1.00;;;;;;5039353;28;20030;-56
2022/08/24 03:18:52;;;;;;;2.08;1.30;;;25.60;1.00;;;;;;5031384;28;20443;-57
2022/08/24 03:21:18;;;;;;;2.70;1.60;;;25.60;1.00;;;;;;5032871;28;20026;-56
2022/08/24 03:23:44;;;;;;;5.00;1.83;;;25.60;1.00;;;;;;5038968;28;20111;-57
2022/08/24 03:26:10;;;;;;;3.63;1.48;;;25.60;1.00;;;;;;5031950;28;20159;-57
2022/08/24 03:28:36;;;;;;;4.43;1.98;;;25.60;1.00;;;;;;5042099;28;20049;-54
2022/08/24 03:31:02;;;;;;;3.13;1.50;;;25.60;1.00;;;;;;5032808;28;20025;-55
2022/08/24 03:33:27;;;;;;;1.70;1.60;;;25.60;1.00;;;;;;5031809;28;20112;-57
2022/08/24 03:35:54;;;;;;;2.42;1.52;;;25.60;1.00;;;;;;5032934;28;20033;-57
2022/08/24 03:38:21;;;;;;;3.13;1.58;;;25.50;1.00;;;;;;5032192;28;20039;-54
2022/08/24 03:40:47;;;;;;;1.88;1.55;;;25.60;1.00;;;;;;5032421;28;20065;-55
2022/08/24 03:43:44;;;;;;;3.47;1.48;;;25.50;1.00;;;;;;5041177;28;20383;-57
2022/08/24 03:46:07;;;;;;;2.63;1.40;;;25.60;1.00;;;;;;5019861;28;20056;-55
2022/08/24 03:48:34;;;;;;;1.88;1.50;;;25.50;1.00;;;;;;5044142;28;20032;-57
2022/08/24 03:51:00;;;;;;;2.25;1.70;;;25.50;1.00;;;;;;5032502;28;20036;-57
2022/08/24 03:53:25;;;;;;;1.58;1.30;;;25.50;1.00;;;;;;5031736;28;20029;-56
2022/08/24 03:55:51;;;;;;;3.38;1.30;;;25.60;1.00;;;;;;5032384;28;20100;-55
2022/08/24 03:58:17;;;;;;;5.13;1.80;;;25.50;1.00;;;;;;5030685;28;20097;-56
2022/08/24 04:00:43;;;;;;;1.98;1.30;;;25.50;1.00;;;;;;5032153;28;20045;-56
2022/08/24 04:03:10;;;;;;;3.13;1.60;;;25.50;1.00;;;;;;5032366;28;20038;-57
2022/08/24 04:05:37;;;;;;;2.83;1.30;;;25.50;1.00;;;;;;5030488;28;20121;-53
2022/08/24 04:08:04;;;;;;;1.95;1.30;;;25.50;1.00;;;;;;5031159;28;20373;-55
2022/08/24 04:10:31;;;;;;;2.00;1.80;;;25.50;1.00;;;;;;5031477;28;20109;-55
2022/08/24 04:12:57;;;;;;;4.18;1.55;;;25.50;1.00;;;;;;5033226;28;20112;-56
2022/08/24 04:15:23;;;;;;;2.35;1.52;;;25.50;1.00;;;;;;5032004;28;20029;-56
2022/08/24 04:17:49;;;;;;;2.80;1.58;;;25.50;1.00;;;;;;5031144;28;20100;-56
2022/08/24 04:20:15;;;;;;;1.33;1.23;;;25.50;1.00;;;;;;5032176;28;20519;-56
2022/08/24 04:22:41;;;;;;;4.45;1.58;;;25.40;1.00;;;;;;5034310;28;20078;-56
2022/08/24 04:25:08;;;;;;;2.72;1.48;;;25.50;1.00;;;;;;5031956;28;20022;-54
2022/08/24 04:27:33;;;;;;;1.50;1.33;;;25.50;1.00;;;;;;5034357;28;20147;-56
2022/08/24 04:29:59;;;;;;;4.30;1.20;;;25.40;1.00;;;;;;5036597;28;20029;-56
2022/08/24 04:32:24;;;;;;;1.63;1.10;;;25.50;1.00;;;;;;5037563;28;20416;-57
2022/08/24 04:34:50;;;;;;;2.53;1.40;;;25.50;1.00;;;;;;5038522;28;20090;-54
2022/08/24 04:37:16;;;;;;;1.95;1.25;;;25.40;1.00;;;;;;5031174;28;20391;-57
2022/08/24 04:39:42;;;;;;;2.25;1.52;;;25.50;1.00;;;;;;5031811;28;20054;-57
2022/08/24 04:42:09;;;;;;;1.65;1.48;;;25.40;1.00;;;;;;5030842;28;20044;-55
2022/08/24 04:44:35;;;;;;;1.25;1.23;;;25.50;1.00;;;;;;5022789;28;20049;-57
2022/08/24 04:47:01;;;;;;;2.45;1.60;;;25.40;1.00;;;;;;5025253;28;20076;-56
2022/08/24 04:49:27;;;;;;;1.88;1.40;;;25.40;1.00;;;;;;5032005;28;20017;-57
2022/08/24 04:51:53;;;;;;;2.75;1.38;;;25.40;1.00;;;;;;5032628;28;20397;-56
2022/08/24 04:54:18;;;;;;;4.00;1.65;;;25.40;1.00;;;;;;5031609;28;20335;-57
2022/08/24 04:56:44;;;;;;;2.28;1.50;;;25.40;1.00;;;;;;5038030;28;20364;-56
2022/08/24 04:59:09;;;;;;;2.53;1.50;;;25.40;1.00;;;;;;5034191;28;20028;-57
2022/08/24 05:01:35;;;;;;;1.30;1.20;;;25.40;1.00;;;;;;5031093;28;20430;-56
2022/08/24 05:04:02;;;;;;;2.53;1.30;;;25.40;1.00;;;;;;5034787;28;20036;-56
2022/08/24 05:06:31;;;;;;;4.43;1.60;;;25.40;1.00;;;;;;5030283;28;20072;-56
2022/08/24 05:08:57;;;;;;;1.60;1.33;;;25.40;1.00;;;;;;5035672;28;20057;-57
2022/08/24 05:11:23;;;;;;;2.50;1.40;;;25.40;1.00;;;;;;5035509;28;20089;-54
2022/08/24 05:13:52;;;;;;;3.28;1.75;;;25.40;1.00;;;;;;5034540;28;20033;-57
2022/08/24 05:16:19;;;;;;;3.42;1.30;;;25.50;1.00;;;;;;5035239;28;20022;-58
2022/08/24 05:18:45;;;;;;;1.83;1.33;;;25.50;1.00;;;;;;5034000;28;20025;-57
2022/08/24 05:21:14;;;;;;;2.33;1.70;;;25.40;1.00;;;;;;5035141;28;20064;-55
2022/08/24 05:23:40;;;;;;;3.15;1.75;;;25.40;1.00;;;;;;5039141;28;20026;-57
2022/08/24 05:26:15;;;;;;;1.80;1.25;;;25.50;1.00;;;;;;5043274;28;20157;-55
2022/08/24 05:28:42;;;;;;;3.50;1.38;;;25.40;1.00;;;;;;5034367;28;20100;-56
2022/08/24 05:31:10;;;;;;;1.30;1.20;;;25.40;1.00;;;;;;5035194;28;20030;-56
2022/08/24 05:33:36;;;;;;;2.63;1.42;;;25.50;1.00;;;;;;5035120;28;20014;-58
2022/08/24 05:36:03;;;;;;;5.55;1.55;;;25.50;1.00;;;;;;5041675;28;20340;-58
2022/08/24 05:38:30;;;;;;;1.48;1.30;;;25.50;1.00;;;;;;5034352;28;20060;-57
2022/08/24 05:40:55;;;;;;;3.92;1.30;;;25.50;1.00;;;;;;5027591;28;20037;-55
2022/08/24 05:43:21;;;;;;;4.32;1.58;;;25.50;1.00;;;;;;5032279;28;20051;-57
2022/08/24 05:45:46;;;;;;;6.28;1.55;;;25.50;1.00;;;;;;5033157;28;20025;-57
2022/08/24 05:48:12;;;;;;;3.28;1.70;;;25.50;1.00;;;;;;5033715;28;20234;-57
2022/08/24 05:50:37;;;;;;;5.43;1.80;;;25.40;1.00;;;;;;5034835;28;20033;-55
2022/08/24 05:53:03;;;;;;;2.90;1.85;;;25.50;1.00;;;;;;5019814;28;20025;-58
2022/08/24 05:55:29;;;;;;;3.75;2.10;;;25.50;1.00;;;;;;5033367;28;20112;-58
2022/08/24 05:57:55;;;;;;;4.43;2.60;;;25.40;1.00;;;;;;5034008;28;20040;-57
2022/08/24 06:00:23;;;;;;;2.95;2.65;;;25.30;1.00;;;;;;5033255;28;20033;-58
2022/08/24 06:02:51;;;;;;;4.68;2.65;;;25.30;1.00;;;;;;5034979;28;20057;-57
2022/08/24 06:05:17;;;;;;;5.05;2.58;;;25.30;1.00;;;;;;5031715;28;20093;-57
2022/08/24 06:07:43;;;;;;;3.60;3.00;;;25.30;1.00;;;;;;5034587;28;20533;-57
2022/08/24 06:10:11;;;;;;;6.38;3.60;;;25.30;1.00;;;;;;5034520;28;20021;-57
2022/08/24 06:12:36;;;;;;;6.20;3.40;;;25.30;1.00;;;;;;5033353;28;20026;-57
2022/08/24 06:15:02;;;;;;;5.55;4.13;;;25.30;1.00;;;;;;5031490;28;20121;-58
2022/08/24 06:17:28;;;;;;;7.53;4.00;;;25.30;1.00;;;;;;5034375;28;20028;-57
2022/08/24 06:19:54;;;;;;;6.65;3.63;;;25.30;1.00;;;;;;5036413;28;20079;-57
2022/08/24 06:22:19;;;;;;;9.38;4.03;;;25.30;1.00;;;;;;5033684;28;20071;-57
2022/08/24 06:27:29;;;;;;;;;;;25.30;1.00;;;;;;5021878;28;20100;-58
2022/08/24 06:30:05;;;;;;;12.82;4.30;;;25.30;1.00;;;;;;5036360;28;19917;-58
2022/08/24 06:32:31;;;;;;;3.92;3.53;;;25.20;1.00;;;;;;5020830;28;20021;-58
2022/08/24 06:34:57;;;;;;;7.43;4.40;;;25.30;1.00;;;;;;5037829;28;20033;-57
2022/08/24 06:37:25;;;;;;;9.68;4.47;;;25.30;1.00;;;;;;5043405;28;20082;-57
2022/08/24 06:39:52;;;;;;;8.20;4.43;;;25.20;1.00;;;;;;5039156;28;20024;-57
2022/08/24 06:42:18;;;;;;;6.07;3.72;;;25.30;1.00;;;;;;5033709;28;20021;-56
2022/08/24 06:44:44;;;;;;;7.25;4.32;;;25.30;1.00;;;;;;5038539;28;20036;-55
2022/08/24 06:47:11;;;;;;;5.43;4.07;;;25.30;1.00;;;;;;5033657;28;20030;-56
2022/08/24 06:50:05;;;;;;;7.32;4.45;;;25.40;1.00;;;;;;5039497;28;20056;-58
2022/08/24 06:52:31;;;;;;;6.03;4.93;;;25.40;1.00;;;;;;5033457;28;20033;-54
2022/08/24 06:54:57;;;;;;;6.20;4.60;;;25.30;1.00;;;;;;5032693;28;20032;-54
2022/08/24 06:57:23;;;;;;;8.00;4.00;;;25.30;1.00;;;;;;5033425;28;20045;-58
2022/08/24 06:59:48;;;;;;;5.35;4.15;;;25.40;1.00;;;;;;5040207;28;20029;-58
2022/08/24 07:02:17;;;;;;;6.95;3.58;;;25.50;1.00;;;;;;5033547;28;20033;-58
2022/08/24 07:04:43;;;;;;;4.78;3.95;;;25.40;1.00;;;;;;5041908;28;20469;-57
2022/08/24 07:07:08;;;;;;;11.55;4.40;;;25.40;1.00;;;;;;5032032;28;20061;-58
2022/08/24 07:09:34;;;;;;;6.18;3.83;;;25.50;1.00;;;;;;5042306;28;20037;-57
2022/08/24 07:12:00;;;;;;;8.30;4.07;;;25.40;1.00;;;;;;5033264;28;20076;-58
2022/08/24 07:14:26;;;;;;;7.95;4.30;;;25.50;1.00;;;;;;5041915;28;20059;-56
2022/08/24 07:16:52;;;;;;;9.63;4.80;;;25.50;1.00;;;;;;5033132;28;20017;-58
2022/08/24 07:19:18;;;;;;;7.80;4.28;;;25.50;1.00;;;;;;5032665;28;20052;-57
2022/08/24 07:21:44;;;;;;;5.18;3.85;;;25.50;1.00;;;;;;5031656;28;20116;-57
2022/08/24 07:24:09;;;;;;;9.85;4.38;;;25.60;1.00;;;;;;5032102;28;20429;-58
2022/08/24 07:26:37;;;;;;;5.57;3.47;;;25.50;1.00;;;;;;5032474;28;20059;-56
2022/08/24 07:29:08;;;;;;;4.32;3.42;;;25.60;1.00;;;;;;5032122;28;20022;-57
2022/08/24 07:31:36;;;;;;;6.18;4.35;;;25.70;1.00;;;;;;5032838;28;20090;-57
2022/08/24 07:34:03;;;;;;;5.15;4.18;;;25.70;1.00;;;;;;5032035;28;20021;-57
2022/08/24 07:36:29;;;;;;;5.72;3.55;;;25.70;1.00;;;;;;5032847;28;20155;-58
2022/08/24 07:39:01;;;;;;;10.15;4.95;;;25.80;1.00;;;;;;5035858;28;20112;-57
2022/08/24 07:41:27;;;;;;;3.85;3.55;;;25.80;1.00;;;;;;5039268;28;20044;-53
2022/08/24 07:43:55;;;;;;;11.20;4.32;;;25.80;1.00;;;;;;5031919;28;20070;-56
2022/08/24 07:46:21;;;;;;;5.68;3.67;;;25.80;1.00;;;;;;5032648;28;20090;-57
2022/08/24 07:48:46;;;;;;;5.82;3.78;;;25.80;1.00;;;;;;5034852;28;20462;-57
2022/08/24 07:51:15;;;;;;;4.78;3.45;;;25.90;1.00;;;;;;5033139;28;20017;-57
2022/08/24 07:53:41;;;;;;;6.07;3.33;;;25.90;1.00;;;;;;5033592;28;20156;-57
2022/08/24 07:56:07;;;;;;;10.27;3.70;;;25.90;1.00;;;;;;5029231;28;20587;-58
2022/08/24 07:58:36;;;;;;;4.50;2.60;;;25.90;1.00;;;;;;5030224;28;20029;-58
2022/08/24 08:01:03;;;;;;;3.85;2.20;;;25.90;1.00;;;;;;5019029;28;20101;-57
2022/08/24 08:03:32;;;;;;;5.90;1.73;;;26.00;1.00;;;;;;5031563;28;20021;-53
2022/08/24 08:06:00;;;;;;;2.83;1.88;;;26.00;1.00;;;;;;5030677;28;20104;-57
2022/08/24 08:08:26;;;;;;;2.63;1.58;;;26.00;1.00;;;;;;5031707;28;20036;-57
2022/08/24 08:10:52;;;;;;;2.53;2.03;;;26.10;1.00;;;;;;5035167;28;20030;-57
2022/08/24 08:13:18;;;;;;;3.72;2.22;;;26.20;1.00;;;;;;5031183;28;20068;-57
2022/08/24 08:15:44;;;;;;;3.05;1.83;;;26.20;1.00;;;;;;5031069;28;20029;-57
2022/08/24 08:18:10;;;;;;;4.18;1.98;;;26.20;1.00;;;;;;5032177;28;20455;-58
2022/08/24 08:20:38;;;;;;;2.72;1.80;;;26.20;1.00;;;;;;5031052;28;20095;-56
2022/08/24 08:25:51;;;;;;;2.63;1.50;;;26.20;1.00;;;;;;5022192;28;20513;-57
2022/08/24 08:28:32;;;;;;;3.05;1.88;;;26.30;1.00;;;;;;5031985;28;20060;-58
2022/08/24 08:34:20;;;;;;;1.90;1.60;;;26.40;1.00;;;;;;5024123;28;20079;-58
2022/08/24 08:36:49;;;;;;;2.70;1.30;;;26.40;1.00;;;;;;5031989;28;20018;-57
2022/08/24 08:39:17;;;;;;;5.53;1.63;;;26.40;1.00;;;;;;5033299;28;20089;-58
2022/08/24 08:41:52;;;;;;;2.75;1.60;;;26.50;1.00;;;;;;5031773;28;20038;-57
2022/08/24 08:44:33;;;;;;;1.80;1.70;;;26.60;1.00;;;;;;5033022;28;20021;-57
2022/08/24 08:47:21;;;;;;;1.98;1.80;;;26.60;1.00;;;;;;5032040;28;20029;-57
2022/08/24 08:50:27;;;;;;;1.40;1.30;;;26.60;1.00;;;;;;5031353;28;20033;-58
2022/08/24 08:53:02;;;;;;;2.70;1.48;;;26.60;1.00;;;;;;5031231;28;20049;-58
2022/08/24 08:56:01;;;;;;;4.07;1.42;;;26.70;1.00;;;;;;5031873;28;20029;-59
2022/08/24 08:58:49;;;;;;;2.90;1.55;;;26.70;1.00;;;;;;5021113;28;20471;-58
2022/08/24 09:01:14;;;;;;;3.97;1.42;;;26.80;1.00;;;;;;5031472;28;20041;-59
2022/08/24 09:04:00;;;;;;;3.60;1.90;;;26.80;1.00;;;;;;5032419;28;20032;-59
2022/08/24 09:06:56;;;;;;;3.55;2.10;;;26.90;1.00;;;;;;5028572;28;20041;-58
2022/08/24 09:09:40;;;;;;;4.45;2.20;;;27.00;1.00;;;;;;5033551;28;20041;-58
2022/08/24 09:12:27;;;;;;;3.42;1.80;;;27.00;1.00;;;;;;5038989;28;20394;-57
2022/08/24 09:15:23;;;;;;;3.50;1.92;;;27.00;1.00;;;;;;5033901;28;20026;-56
2022/08/24 09:18:07;;;;;;;2.08;1.45;;;27.00;1.00;;;;;;5018782;28;20025;-58
2022/08/24 09:21:06;;;;;;;3.58;1.90;;;27.00;1.00;;;;;;5041909;28;20087;-57
2022/08/24 09:23:50;;;;;;;2.67;2.45;;;27.10;1.00;;;;;;5031392;28;20033;-58
2022/08/24 09:26:47;;;;;;;2.08;1.90;;;27.10;1.00;;;;;;5034553;28;20097;-58
2022/08/24 09:29:22;;;;;;;4.88;2.30;;;27.10;1.00;;;;;;5042160;28;20033;-57
2022/08/24 09:32:21;;;;;;;3.85;2.33;;;27.10;1.00;;;;;;5041590;28;20078;-59
2022/08/24 09:34:46;;;;;;;3.55;1.92;;;27.20;1.00;;;;;;5030881;28;20034;-56
2022/08/24 09:37:33;;;;;;;3.65;1.60;;;27.30;1.00;;;;;;5031372;28;20482;-57
2022/08/24 09:40:16;;;;;;;4.63;1.88;;;27.30;1.00;;;;;;5025337;28;20108;-56
2022/08/24 09:43:03;;;;;;;3.22;2.17;;;27.30;1.00;;;;;;5035579;28;20101;-58
2022/08/24 09:46:02;;;;;;;3.00;2.70;;;27.70;1.00;;;;;;5030654;28;20104;-57
2022/08/24 09:48:49;;;;;;;1.95;1.70;;;28.10;1.00;;;;;;5031400;28;20414;-57
2022/08/24 09:52:12;;;;;;;4.90;2.05;;;28.00;1.00;;;;;;5030387;28;20034;-59
2022/08/24 09:54:40;;;;;;;4.78;2.17;;;28.10;1.00;;;;;;5030440;28;20045;-58
2022/08/24 09:57:42;;;;;;;3.22;2.00;;;28.20;1.00;;;;;;5032653;28;20033;-58
2022/08/24 10:00:15;;;;;;;2.80;1.52;;;28.90;1.00;;;;;;5022585;28;20057;-58
2022/08/24 10:03:01;;;;;;;3.05;1.75;;;28.80;1.00;;;;;;5034874;28;20027;-59
2022/08/24 10:06:06;;;;;;;3.30;1.80;;;28.90;1.00;;;;;;5024935;28;20036;-57
2022/08/24 10:08:50;;;;;;;;;;;29.40;1.00;;;;;;5030959;28;20120;-58
2022/08/24 10:11:40;;;;;;;2.07;1.90;;;28.80;1.00;;;;;;5033361;28;19909;-57
2022/08/24 10:14:15;;;;;;;3.75;1.77;;;28.90;1.00;;;;;;5037502;28;20308;-59
2022/08/24 10:17:25;;;;;;;2.53;1.55;;;28.70;1.00;;;;;;5038810;28;20036;-59
2022/08/24 10:20:00;;;;;;;2.53;1.85;;;29.10;1.00;;;;;;5026631;28;20040;-57
2022/08/24 10:22:29;;;;;;;2.35;2.25;;;29.10;1.00;;;;;;5040305;28;20386;-58
2022/08/24 10:25:09;;;;;;;3.75;2.13;;;28.80;1.00;;;;;;5034405;28;20121;-59
2022/08/24 10:28:04;;;;;;;6.32;2.60;;;29.00;1.00;;;;;;5040909;28;20045;-58
2022/08/24 10:30:54;;;;;;;4.82;2.25;;;29.20;1.00;;;;;;5023449;28;20026;-58
2022/08/24 10:33:29;;;;;;;2.80;2.60;;;29.30;1.00;;;;;;5032299;28;20033;-58
2022/08/24 10:36:28;;;;;;;3.22;2.80;;;29.20;1.00;;;;;;5043520;28;20112;-59
2022/08/24 10:39:42;;;;;;;2.42;2.25;;;29.30;1.00;;;;;;5022057;28;20044;-59
2022/08/24 10:45:30;;;;;;;4.50;3.50;;;29.80;1.00;;;;;;5033952;28;20048;-58
2022/08/24 10:48:28;;;;;;;3.25;2.70;;;29.60;1.00;;;;;;5023146;28;20542;-59
2022/08/24 10:51:12;;;;;;;3.67;2.67;;;29.70;1.00;;;;;;5029703;28;20037;-59
2022/08/24 10:53:38;;;;;;;7.25;2.90;;;29.60;1.00;;;;;;5030912;28;20030;-59
2022/08/24 10:56:04;;;;;;;3.03;2.58;;;29.50;1.00;;;;;;5035128;28;20035;-59
2022/08/24 10:58:30;;;;;;;8.13;3.20;;;29.70;1.00;;;;;;5037096;28;20539;-59
2022/08/24 11:01:25;;;;;;;4.82;4.28;;;29.70;1.00;;;;;;5033952;28;20451;-59
2022/08/24 11:03:51;;;;;;;4.15;3.75;;;30.00;1.00;;;;;;5035854;28;20028;-58
2022/08/24 11:06:18;;;;;;;5.03;3.05;;;29.80;1.00;;;;;;5036265;28;20021;-58
2022/08/24 11:08:53;;;;;;;3.55;2.33;;;29.90;1.00;;;;;;5037742;28;20037;-59
2022/08/24 11:11:33;;;;;;;2.30;1.60;;;30.00;1.00;;;;;;5036608;28;20021;-57
2022/08/24 11:14:27;;;;;;;2.78;2.40;;;30.50;1.00;;;;;;5035470;28;20510;-58
2022/08/24 11:17:16;;;;;;;4.78;2.33;;;30.40;1.00;;;;;;5031271;28;20499;-58
2022/08/24 11:19:42;;;;;;;2.90;2.65;;;30.40;1.00;;;;;;5033166;28;20049;-58
2022/08/24 11:22:30;;;;;;;4.07;1.85;;;30.30;1.00;;;;;;5028818;28;20101;-59
2022/08/24 11:25:21;;;;;;;1.92;1.77;;;30.50;1.00;;;;;;5033507;28;20037;-59
2022/08/24 11:27:52;;;;;;;2.50;1.42;;;31.30;1.00;;;;;;5038983;28;20071;-59
2022/08/24 11:30:17;;;;;;;3.03;2.00;;;31.50;1.00;;;;;;5032978;28;20440;-58
2022/08/24 11:32:46;;;;;;;2.50;2.00;;;31.90;1.00;;;;;;5032068;28;20032;-60
2022/08/24 11:35:20;;;;;;;2.72;2.17;;;31.40;1.00;;;;;;5032848;28;20489;-59
2022/08/24 11:37:47;;;;;;;1.73;1.60;;;31.90;1.00;;;;;;5041613;28;20037;-59
2022/08/24 11:40:14;;;;;;;2.80;1.65;;;32.00;1.00;;;;;;5032814;28;20033;-57
2022/08/24 11:42:43;;;;;;;2.50;1.50;;;31.90;1.00;;;;;;5031620;28;20130;-57
2022/08/24 11:45:21;;;;;;;3.28;2.25;;;31.20;1.00;;;;;;5032559;28;20056;-57
2022/08/24 11:48:05;;;;;;;4.57;4.13;;;30.70;1.00;;;;;;5031800;28;20390;-57
2022/08/24 11:50:32;;;;;;;2.92;2.60;;;30.60;1.00;;;;;;5031946;28;20037;-57
2022/08/24 11:53:22;;;;;;;7.03;2.33;;;30.90;1.00;;;;;;5031387;28;20060;-58
2022/08/24 11:56:01;;;;;;;4.20;2.03;;;30.90;1.00;;;;;;5032574;28;20022;-57
2022/08/24 11:58:51;;;;;;;2.92;1.85;;;31.50;1.00;;;;;;5020507;28;20031;-57
2022/08/24 12:01:22;;;;;;;1.52;1.42;;;32.30;1.00;;;;;;5033316;28;20083;-58
2022/08/24 12:03:56;;;;;;;3.50;2.08;;;32.40;1.00;;;;;;5042611;28;20502;-57
2022/08/24 12:06:43;;;;;;;3.50;2.05;;;32.60;1.00;;;;;;5034121;28;20034;-58
2022/08/24 12:09:28;;;;;;;5.22;2.00;;;34.80;1.00;;;;;;5027852;28;20026;-57
2022/08/24 12:12:29;;;;;;;2.20;2.00;;;36.90;1.00;;;;;;5030206;28;20029;-58
2022/08/24 12:15:17;;;;;;;2.40;2.30;;;38.80;1.00;;;;;;5018706;28;20040;-58
2022/08/24 12:18:20;;;;;;;2.83;2.30;;;38.30;1.00;;;;;;5024674;28;20049;-58
2022/08/24 12:20:48;;;;;;;3.28;2.70;;;38.80;1.00;;;;;;5031883;28;20073;-58
2022/08/24 12:23:25;;;;;;;2.70;2.60;;;42.00;1.00;;;;;;5039395;28;20049;-58
2022/08/24 12:26:01;;;;;;;3.92;2.92;;;43.80;1.00;;;;;;5031949;28;20130;-58
2022/08/24 12:28:49;;;;;;;3.33;2.97;;;43.90;1.00;;;;;;5028030;28;20053;-58
2022/08/24 12:31:14;;;;;;;4.57;3.30;;;45.00;99.90;;;;;;5028389;28;20469;-57
2022/08/24 12:33:52;;;;;;;3.30;3.10;;;42.10;1.00;;;;;;5028910;28;20018;-58
2022/08/24 12:36:35;;;;;;;3.25;3.05;;;42.30;1.00;;;;;;5030506;28;20033;-58
2022/08/24 12:39:18;;;;;;;4.37;4.03;;;41.30;1.00;;;;;;5025701;28;20030;-58
2022/08/24 12:41:54;;;;;;;4.50;4.05;;;41.50;1.00;;;;;;5041107;28;20044;-59
2022/08/24 12:44:25;;;;;;;4.20;3.90;;;40.70;1.00;;;;;;5035907;28;20021;-59
2022/08/24 12:46:53;;;;;;;4.47;4.15;;;40.80;1.00;;;;;;5036378;28;20037;-59
2022/08/24 12:49:23;;;;;;;4.93;4.53;;;39.50;1.00;;;;;;5037367;28;20083;-58
2022/08/24 12:52:22;;;;;;;4.80;4.60;;;38.00;1.00;;;;;;5031048;28;20029;-58
2022/08/24 12:55:07;;;;;;;4.53;4.22;;;38.40;1.00;;;;;;5031589;28;20087;-58
2022/08/24 12:57:43;;;;;;;4.88;4.57;;;40.30;1.00;;;;;;5030527;28;20021;-59
2022/08/24 13:00:21;;;;;;;4.82;4.60;;;42.90;99.90;;;;;;5030306;28;20033;-59
2022/08/24 13:02:56;;;;;;;4.93;4.53;;;44.50;99.90;;;;;;5033975;28;20037;-59
2022/08/24 13:05:22;;;;;;;4.88;4.57;;;43.80;99.90;;;;;;5018167;28;20182;-59
2022/08/24 13:07:51;;;;;;;5.25;4.85;;;44.90;99.90;;;;;;5030556;28;20112;-59
2022/08/24 13:10:23;;;;;;;5.30;4.90;;;45.80;99.90;;;;;;5031428;28;20022;-58
2022/08/24 13:13:07;;;;;;;5.18;4.80;;;45.40;99.90;;;;;;5030068;28;20384;-58
2022/08/24 13:15:36;;;;;;;7.32;5.47;;;45.40;99.90;;;;;;5031172;28;20009;-58
2022/08/24 13:18:07;;;;;;;5.30;4.90;;;45.50;99.90;;;;;;5031404;28;20040;-58
2022/08/24 13:20:42;;;;;;;5.18;4.88;;;45.90;99.90;;;;;;5027311;28;20082;-58
2022/08/24 13:23:10;;;;;;;5.43;4.60;;;47.60;99.90;;;;;;5032687;28;20029;-58
2022/08/24 13:26:06;;;;;;;5.20;4.80;;;46.10;99.90;;;;;;5032477;28;20079;-58
2022/08/24 13:28:48;;;;;;;5.70;4.85;;;46.60;99.90;;;;;;5031088;28;20037;-58
2022/08/24 13:31:25;;;;;;;6.88;4.50;;;47.70;99.90;;;;;;5037982;28;20024;-58
2022/08/24 13:34:07;;;;;;;5.20;4.80;;;48.20;99.90;;;;;;5035886;28;20036;-58
2022/08/24 13:37:09;;;;;;;5.72;5.10;;;47.30;99.90;;;;;;5034084;28;20112;-58
2022/08/24 13:39:50;;;;;;;5.30;4.90;;;47.30;99.90;;;;;;5021766;28;20037;-58